Time;durP1;ratioP1;P1;durP2;ratioP2;P2;SDS_P1;SDS_P2;PMS_P1;PMS_P2;Temp;Humidity;BMP_temperature;BMP_pressure;BME280_temperature;BME280_humidity;BME280_pressure;Samples;Min_cycle;Max_cycle;Signal;HPM_P1;HPM_P2
2021/12/15 00:01:24;;;;;;;13.18;7.28;;;;;;;0.25;100.00;100153.05;1600348;89;20941;-72
2021/12/15 00:03:52;;;;;;;16.90;7.47;;;;;;;0.24;100.00;100149.23;1633097;86;20976;-72
2021/12/15 00:06:21;;;;;;;13.80;7.53;;;;;;;0.23;100.00;100143.54;1633333;86;21146;-70
2021/12/15 00:08:54;;;;;;;13.90;7.95;;;;;;;0.21;100.00;100144.30;1624840;87;20887;-70
2021/12/15 00:11:24;;;;;;;24.60;8.75;;;;;;;0.16;100.00;100149.05;1636795;86;21154;-70
2021/12/15 00:13:58;;;;;;;23.77;9.23;;;;;;;0.13;100.00;100158.97;1619632;86;21070;-70
2021/12/15 00:16:27;;;;;;;15.55;8.78;;;;;;;0.13;100.00;100162.19;1635857;86;20986;-70
2021/12/15 00:18:56;;;;;;;15.65;7.80;;;;;;;0.14;100.00;100154.39;1633794;86;21172;-70
2021/12/15 00:21:27;;;;;;;19.00;7.90;;;;;;;0.10;100.00;100161.30;1613599;87;21054;-71
2021/12/15 00:23:58;;;;;;;;;;;;;;;0.06;100.00;100166.88;1619559;87;20928;-71
2021/12/15 00:26:32;;;;;;;17.27;8.93;;;;;;;0.05;100.00;100150.38;1631437;86;20454;-70
2021/12/15 00:28:58;;;;;;;;;;;;;;;0.08;100.00;100157.48;1642271;86;21039;-70
2021/12/15 00:31:32;;;;;;;17.75;9.73;;;;;;;0.07;100.00;100158.55;1635009;86;20150;-72
2021/12/15 00:34:04;;;;;;;17.55;8.10;;;;;;;0.05;100.00;100157.95;1617401;86;21068;-72
2021/12/15 00:36:30;;;;;;;19.05;9.20;;;;;;;0.04;100.00;100161.70;1651573;86;20915;-72
2021/12/15 00:39:03;;;;;;;17.62;9.75;;;;;;;0.08;100.00;100160.71;1637044;86;20971;-73
2021/12/15 00:41:33;;;;;;;22.00;10.23;;;;;;;0.10;100.00;100155.91;1636756;86;21471;-70
2021/12/15 00:44:08;;;;;;;21.48;9.90;;;;;;;0.13;100.00;100150.86;1638020;86;21565;-70
2021/12/15 00:46:42;;;;;;;24.75;9.73;;;;;;;0.20;100.00;100154.80;1640340;86;21807;-70
2021/12/15 00:49:12;;;;;;;15.60;8.53;;;;;;;0.18;100.00;100156.92;1634948;86;20875;-71
2021/12/15 00:51:43;;;;;;;19.57;9.10;;;;;;;0.15;100.00;100156.03;1635745;86;20971;-73
2021/12/15 00:54:22;;;;;;;15.03;9.45;;;;;;;0.11;100.00;100157.55;1622180;87;20962;-73
2021/12/15 00:56:53;;;;;;;17.77;9.53;;;;;;;0.10;100.00;100158.61;1620106;86;21630;-73
2021/12/15 00:59:22;;;;;;;19.95;8.85;;;;;;;0.10;100.00;100160.78;1636509;86;21500;-73
2021/12/15 01:01:58;;;;;;;18.70;8.85;;;;;;;0.08;100.00;100160.19;1634131;86;20912;-73
2021/12/15 01:04:30;;;;;;;16.30;8.20;;;;;;;0.06;100.00;100160.95;1633167;86;21114;-73
2021/12/15 01:07:05;;;;;;;14.90;8.88;;;;;;;0.10;100.00;100155.91;1637020;86;21561;-72
2021/12/15 01:09:44;;;;;;;16.70;9.10;;;;;;;0.11;100.00;100148.92;1634573;86;21161;-72
2021/12/15 01:20:52;;;;;;;16.10;8.08;;;;;;;0.11;100.00;100130.02;1621848;86;20922;-73
2021/12/15 01:23:24;;;;;;;17.67;8.10;;;;;;;0.07;100.00;100132.08;1634128;86;21074;-73
2021/12/15 01:25:58;;;;;;;;;;;;;;;0.07;100.00;100132.89;1640515;86;21070;-73
2021/12/15 01:28:30;;;;;;;15.65;8.20;;;;;;;0.06;100.00;100130.43;1635225;86;20118;-72
2021/12/15 01:31:01;;;;;;;15.53;8.38;;;;;;;0.05;100.00;100132.30;1641754;86;21101;-72
2021/12/15 01:33:32;;;;;;;18.85;9.55;;;;;;;0.04;100.00;100130.66;1631725;86;21511;-72
2021/12/15 01:36:03;;;;;;;20.80;9.20;;;;;;;0.07;100.00;100136.13;1635111;86;21029;-73
2021/12/15 01:38:35;;;;;;;16.95;8.65;;;;;;;0.07;100.00;100141.00;1638610;86;21209;-72
2021/12/15 01:41:08;;;;;;;16.82;7.75;;;;;;;0.07;100.00;100140.17;1612168;86;21075;-72
2021/12/15 01:49:02;;;;;;;11.97;6.97;;;;;;;0.10;100.00;100128.91;1638750;86;21062;-71
2021/12/15 01:51:32;;;;;;;12.25;7.33;;;;;;;0.11;100.00;100122.45;1634635;86;21153;-71
2021/12/15 01:54:02;;;;;;;12.70;7.62;;;;;;;0.14;100.00;100116.06;1637753;86;21442;-71
2021/12/15 01:56:31;;;;;;;17.20;8.05;;;;;;;0.19;100.00;100119.41;1634611;86;21089;-71
2021/12/15 01:59:01;;;;;;;23.95;9.05;;;;;;;0.21;100.00;100122.70;1634010;86;21064;-71
2021/12/15 02:01:34;;;;;;;20.02;8.18;;;;;;;0.16;100.00;100123.41;1635516;86;21078;-72
2021/12/15 02:04:04;;;;;;;13.40;6.63;;;;;;;0.11;100.00;100126.50;1639683;86;21183;-72
2021/12/15 02:06:42;;;;;;;10.50;5.77;;;;;;;0.08;100.00;100133.72;1634193;86;21488;-72
2021/12/15 02:09:21;;;;;;;12.28;6.60;;;;;;;0.05;100.00;100130.13;1617312;87;21135;-73
2021/12/15 02:11:46;;;;;;;11.28;5.90;;;;;;;0.02;100.00;100137.34;1636651;86;21514;-73
2021/12/15 02:14:17;;;;;;;11.10;6.35;;;;;;;-0.01;100.00;100136.78;1619306;86;21177;-73
2021/12/15 02:16:48;;;;;;;11.95;7.17;;;;;;;-0.03;100.00;100139.42;1640942;86;21043;-72
2021/12/15 02:19:20;;;;;;;14.23;6.87;;;;;;;-0.06;100.00;100135.84;1631439;86;20960;-73
2021/12/15 02:21:58;;;;;;;10.90;6.85;;;;;;;-0.08;100.00;100135.25;1607161;89;20914;-73
2021/12/15 02:24:40;;;;;;;10.40;6.78;;;;;;;-0.08;100.00;100127.97;1607800;88;20960;-72
2021/12/15 02:27:01;;;;;;;11.15;6.58;;;;;;;-0.07;100.00;100135.02;1604234;89;21489;-73
2021/12/15 02:29:35;;;;;;;11.25;6.85;;;;;;;-0.06;100.00;100129.91;1608371;88;21820;-71
2021/12/15 02:32:15;;;;;;;12.95;7.20;;;;;;;-0.05;100.00;100128.86;1607525;89;21034;-71
2021/12/15 02:37:23;;;;;;;17.30;8.00;;;;;;;-0.09;100.00;100116.88;1603843;89;21029;-70
2021/12/15 02:39:59;;;;;;;10.60;7.15;;;;;;;-0.08;100.00;100127.97;1608250;88;20933;-72
2021/12/15 02:42:35;;;;;;;15.95;7.65;;;;;;;-0.07;100.00;100128.27;1589205;88;21495;-72
2021/12/15 02:45:09;;;;;;;13.30;7.50;;;;;;;-0.06;100.00;100127.73;1611734;88;20973;-73
2021/12/15 02:47:40;;;;;;;14.40;8.83;;;;;;;-0.04;100.00;100133.73;1591074;89;20894;-72
2021/12/15 02:50:11;;;;;;;15.30;8.45;;;;;;;-0.05;100.00;100134.26;1610697;89;21045;-73
2021/12/15 02:52:40;;;;;;;15.10;8.60;;;;;;;-0.04;100.00;100141.30;1610676;89;21444;-72
2021/12/15 02:55:16;;;;;;;14.45;8.28;;;;;;;-0.03;100.00;100139.42;1590684;89;21441;-73
2021/12/15 02:57:51;;;;;;;12.78;8.00;;;;;;;-0.06;100.00;100138.01;1611805;88;20953;-72
2021/12/15 03:00:24;;;;;;;15.48;7.92;;;;;;;-0.08;100.00;100142.81;1610375;89;20929;-73
2021/12/15 03:05:47;;;;;;;14.20;8.03;;;;;;;-0.06;100.00;100144.76;1603230;89;20917;-73
2021/12/15 03:08:08;;;;;;;15.28;8.60;;;;;;;-0.05;100.00;100150.98;1606327;87;21165;-73
2021/12/15 03:16:11;;;;;;;17.27;8.43;;;;;;;-0.03;100.00;100137.55;1610171;88;21509;-73
2021/12/15 03:18:43;;;;;;;14.83;8.78;;;;;;;0.00;100.00;100143.01;1610861;89;21544;-72
2021/12/15 03:21:25;;;;;;;14.87;8.23;;;;;;;-0.03;100.00;100132.15;1591184;89;21575;-73
2021/12/15 03:24:02;;;;;;;18.10;9.53;;;;;;;-0.06;100.00;100128.56;1570627;89;20977;-73
2021/12/15 03:26:39;;;;;;;16.17;9.10;;;;;;;-0.09;100.00;100120.93;1610651;88;20973;-71
2021/12/15 03:35:16;;;;;;;23.57;10.03;;;;;;;-0.14;100.00;100127.55;1758408;81;21606;-73
2021/12/15 03:37:38;;;;;;;17.50;9.15;;;;;;;-0.17;100.00;100132.05;1757091;81;20967;-73
2021/12/15 03:40:16;;;;;;;22.20;10.60;;;;;;;-0.18;100.00;100136.34;1755668;81;20916;-73
2021/12/15 03:42:56;;;;;;;18.27;9.13;;;;;;;-0.17;100.00;100136.11;1758436;81;22017;-73
2021/12/15 03:45:32;;;;;;;17.48;8.78;;;;;;;-0.16;100.00;100142.33;1736899;81;20975;-73
2021/12/15 03:48:07;;;;;;;17.57;9.20;;;;;;;-0.16;100.00;100139.10;1758428;81;21809;-73
2021/12/15 03:50:37;;;;;;;18.20;9.35;;;;;;;-0.16;100.00;100148.55;1731581;81;20971;-72
2021/12/15 03:53:11;;;;;;;18.27;9.85;;;;;;;-0.18;100.00;100147.95;1739358;81;21475;-73
2021/12/15 03:55:40;;;;;;;16.57;8.48;;;;;;;-0.18;100.00;100151.18;1758926;81;20900;-72
2021/12/15 03:58:11;;;;;;;18.02;9.93;;;;;;;-0.17;100.00;100156.34;1724647;83;20919;-73
2021/12/15 04:00:52;;;;;;;19.05;9.90;;;;;;;-0.15;100.00;100158.28;1724987;83;21173;-73
2021/12/15 04:03:21;;;;;;;17.52;9.68;;;;;;;-0.17;100.00;100156.34;1724167;83;20922;-71
2021/12/15 04:05:51;;;;;;;16.80;8.63;;;;;;;-0.16;100.00;100154.47;1696573;83;20884;-72
2021/12/15 04:08:20;;;;;;;17.37;9.10;;;;;;;-0.16;100.00;100155.29;1696277;83;20919;-72
2021/12/15 04:10:54;;;;;;;14.78;8.43;;;;;;;-0.17;100.00;100158.22;1724604;83;20884;-71
2021/12/15 04:13:23;;;;;;;16.20;9.65;;;;;;;-0.20;100.00;100159.50;1724878;83;21635;-72
2021/12/15 04:15:57;;;;;;;15.03;8.18;;;;;;;-0.22;100.00;100162.14;1724941;83;20879;-72
2021/12/15 04:18:26;;;;;;;13.32;8.10;;;;;;;-0.23;100.00;100168.06;1724878;83;21565;-72
2021/12/15 04:20:53;;;;;;;12.80;7.58;;;;;;;-0.22;100.00;100163.48;1721292;83;20967;-70
2021/12/15 04:23:22;;;;;;;13.75;7.80;;;;;;;-0.24;100.00;100167.77;1698788;84;21434;-72
2021/12/15 04:25:54;;;;;;;12.63;7.53;;;;;;;-0.25;100.00;100171.52;1659249;85;20934;-71
2021/12/15 04:28:33;;;;;;;11.88;6.50;;;;;;;-0.24;100.00;100174.51;1684492;84;21585;-70
2021/12/15 04:31:04;;;;;;;10.60;6.83;;;;;;;-0.21;100.00;100179.97;1667253;84;21416;-70
2021/12/15 04:33:49;;;;;;;14.58;8.48;;;;;;;-0.21;100.00;100183.49;1666819;84;20975;-70
2021/12/15 04:36:21;;;;;;;14.75;8.68;;;;;;;-0.18;100.00;100180.34;1696794;84;20970;-71
2021/12/15 04:38:50;;;;;;;16.93;8.50;;;;;;;-0.15;100.00;100187.97;1695638;84;21165;-71
2021/12/15 04:41:17;;;;;;;14.65;7.95;;;;;;;-0.16;100.00;100191.72;1696467;84;21004;-72
2021/12/15 04:43:44;;;;;;;14.38;7.42;;;;;;;-0.17;100.00;100198.70;1694631;84;21002;-72
2021/12/15 04:46:15;;;;;;;19.45;8.68;;;;;;;-0.16;100.00;100204.39;1683088;84;20995;-72
2021/12/15 04:48:44;;;;;;;12.95;7.65;;;;;;;-0.18;100.00;100205.97;1682423;84;21091;-71
2021/12/15 04:51:15;;;;;;;14.18;8.13;;;;;;;-0.19;100.00;100216.47;1652205;84;21523;-73
2021/12/15 04:53:46;;;;;;;12.98;8.43;;;;;;;-0.19;100.00;100211.59;1680994;84;21096;-72
2021/12/15 04:56:15;;;;;;;16.00;7.20;;;;;;;-0.18;100.00;100204.62;1681742;84;21031;-71
2021/12/15 04:58:47;;;;;;;11.40;6.58;;;;;;;-0.17;100.00;100206.27;1680111;84;21027;-71
2021/12/15 05:01:19;;;;;;;8.38;5.50;;;;;;;-0.18;100.00;100205.97;1679746;84;21067;-71
2021/12/15 05:03:50;;;;;;;11.33;5.85;;;;;;;-0.18;100.00;100212.72;1683000;84;22238;-72
2021/12/15 05:06:16;;;;;;;10.60;6.28;;;;;;;-0.18;100.00;100214.59;1675279;84;20964;-71
2021/12/15 05:08:46;;;;;;;12.40;6.42;;;;;;;-0.20;100.00;100215.34;1727699;82;21002;-71
2021/12/15 05:11:16;;;;;;;8.65;5.10;;;;;;;-0.23;100.00;100211.76;1700781;82;20991;-71
2021/12/15 05:13:48;;;;;;;8.75;5.05;;;;;;;-0.24;100.00;100204.19;1726951;82;21065;-71
2021/12/15 05:16:16;;;;;;;8.90;5.40;;;;;;;-0.25;100.00;100213.34;1727053;82;20977;-71
2021/12/15 05:18:49;;;;;;;10.50;4.90;;;;;;;-0.27;100.00;100208.69;1727892;82;20932;-70
2021/12/15 05:21:19;;;;;;;9.00;5.30;;;;;;;-0.30;100.00;100202.41;1726436;82;20852;-71
2021/12/15 05:23:57;;;;;;;10.48;5.55;;;;;;;-0.33;100.00;100194.77;1731110;82;20975;-71
2021/12/15 05:26:26;;;;;;;9.08;5.10;;;;;;;-0.35;100.00;100198.22;1729811;81;21046;-75
2021/12/15 05:29:00;;;;;;;13.22;5.08;;;;;;;-0.35;100.00;100200.91;1721355;82;21135;-70
2021/12/15 05:31:33;;;;;;;5.72;3.92;;;;;;;-0.36;100.00;100211.41;1702489;82;20932;-73
2021/12/15 05:34:06;;;;;;;8.15;4.35;;;;;;;-0.38;100.00;100210.29;1699097;82;20967;-76
2021/12/15 05:36:40;;;;;;;8.68;4.60;;;;;;;-0.38;100.00;100224.30;1700202;82;20940;-75
2021/12/15 05:39:08;;;;;;;7.58;3.62;;;;;;;-0.40;100.00;100216.96;1721890;82;26911;-73
2021/12/15 05:41:45;;;;;;;8.18;4.25;;;;;;;-0.42;100.00;100218.54;1721774;82;21151;-73
2021/12/15 05:44:15;;;;;;;6.35;3.87;;;;;;;-0.41;100.00;100223.41;1720359;82;20932;-77
2021/12/15 05:46:45;;;;;;;9.18;3.85;;;;;;;-0.40;100.00;100234.50;1719992;82;20968;-74
2021/12/15 05:49:12;;;;;;;7.40;3.60;;;;;;;-0.38;100.00;100236.44;1722216;82;20956;-75
2021/12/15 05:51:45;;;;;;;7.00;3.75;;;;;;;-0.39;100.00;100238.84;1722144;82;20927;-73
2021/12/15 05:54:14;;;;;;;6.00;3.65;;;;;;;-0.37;100.00;100233.52;1720586;82;21027;-72
2021/12/15 05:56:44;;;;;;;6.75;4.15;;;;;;;-0.34;100.00;100244.37;1719337;82;21075;-73
2021/12/15 05:59:13;;;;;;;5.70;3.60;;;;;;;-0.33;100.00;100248.73;1721378;82;21075;-72
2021/12/15 06:01:42;;;;;;;6.10;3.58;;;;;;;-0.32;100.00;100242.28;1719332;82;21019;-72
2021/12/15 06:04:13;;;;;;;8.83;4.20;;;;;;;-0.34;100.00;100244.37;1719071;82;20908;-71
2021/12/15 06:06:42;;;;;;;9.38;4.40;;;;;;;-0.35;100.00;100245.44;1701990;82;21012;-73
2021/12/15 06:09:13;;;;;;;7.47;4.00;;;;;;;-0.37;100.00;100252.92;1698011;83;21464;-75
2021/12/15 06:11:42;;;;;;;8.95;4.05;;;;;;;-0.38;100.00;100252.62;1721614;82;21452;-77
2021/12/15 06:14:23;;;;;;;6.15;3.80;;;;;;;-0.39;100.00;100250.98;1708434;82;20932;-76
2021/12/15 06:16:48;;;;;;;9.78;5.03;;;;;;;-0.39;100.00;100260.42;1700129;84;21036;-73
2021/12/15 06:19:18;;;;;;;5.55;3.30;;;;;;;-0.38;100.00;100260.72;1700699;83;21072;-71
2021/12/15 06:21:53;;;;;;;9.98;3.83;;;;;;;-0.40;100.00;100260.13;1674173;85;20939;-75
2021/12/15 06:24:23;;;;;;;8.65;4.42;;;;;;;-0.39;100.00;100269.86;1720936;82;20892;-74
2021/12/15 06:26:58;;;;;;;9.55;5.22;;;;;;;-0.39;100.00;100272.56;1720240;82;20909;-74
2021/12/15 06:29:33;;;;;;;8.55;4.62;;;;;;;-0.37;100.00;100261.84;1710140;81;21004;-74
2021/12/15 06:32:06;;;;;;;13.40;7.28;;;;;;;-0.35;100.00;100271.06;1729102;81;21153;-74
2021/12/15 06:34:37;;;;;;;8.60;5.15;;;;;;;-0.36;100.00;100274.28;1727751;83;20982;-73
2021/12/15 06:37:09;;;;;;;10.68;4.92;;;;;;;-0.33;100.00;100263.56;1701114;83;20941;-73
2021/12/15 06:39:42;;;;;;;8.80;4.45;;;;;;;-0.29;100.00;100276.90;1728141;83;20978;-76
2021/12/15 06:42:15;;;;;;;7.28;3.65;;;;;;;-0.31;100.00;100274.95;1701045;83;20876;-73
2021/12/15 06:44:48;;;;;;;5.47;3.55;;;;;;;-0.30;100.00;100277.95;1727782;83;21141;-73
2021/12/15 06:57:29;;;;;;;7.80;4.08;;;;;;;-0.23;100.00;100277.34;1701047;83;20888;-72
2021/12/15 06:58:15;;;;;;;7.08;4.12;;;;;;;-0.21;100.00;100283.86;1728086;83;22102;-74
2021/12/15 07:00:47;;;;;;;7.00;4.03;;;;;;;-0.20;100.00;100276.89;1701080;83;20919;-75
2021/12/15 07:03:18;;;;;;;8.33;3.85;;;;;;;-0.21;100.00;100277.12;1706611;81;21510;-74
2021/12/15 07:05:49;;;;;;;6.35;3.70;;;;;;;-0.19;100.00;100288.50;1740757;81;20983;-74
2021/12/15 07:08:17;;;;;;;7.70;4.65;;;;;;;-0.18;100.00;100280.70;1742641;81;20931;-73
2021/12/15 07:10:50;;;;;;;9.68;4.70;;;;;;;-0.16;100.00;100284.83;1738878;81;21160;-73
2021/12/15 07:13:25;;;;;;;7.37;4.70;;;;;;;-0.11;100.00;100289.02;1675770;83;20952;-73
2021/12/15 07:16:07;;;;;;;7.90;4.78;;;;;;;-0.06;100.00;100289.16;1699760;83;21015;-75
2021/12/15 07:20:02;;;;;;;11.50;4.90;;;;;;;-0.01;100.00;100296.57;1699536;82;20975;-73
2021/12/15 07:21:20;;;;;;;11.83;5.70;;;;;;;-0.03;100.00;100292.75;1685940;83;21114;-73
2021/12/15 07:23:47;;;;;;;27.48;8.75;;;;;;;-0.02;100.00;100298.98;1677540;83;22163;-73
2021/12/15 07:26:23;;;;;;;26.75;9.65;;;;;;;0.00;100.00;100296.88;1674295;83;21034;-74
2021/12/15 07:28:52;;;;;;;23.30;9.25;;;;;;;0.03;100.00;100300.95;1694788;83;21004;-73
2021/12/15 07:31:24;;;;;;;22.17;10.78;;;;;;;0.04;100.00;100302.61;1666791;84;21008;-74
2021/12/15 07:33:55;;;;;;;31.40;14.23;;;;;;;0.06;100.00;100300.50;1697013;82;20960;-73
2021/12/15 07:36:23;;;;;;;28.35;12.90;;;;;;;0.12;100.00;100304.98;1701528;82;21015;-74
2021/12/15 07:38:58;;;;;;;23.05;11.45;;;;;;;0.13;100.00;100299.89;1688039;84;20963;-73
2021/12/15 07:41:36;;;;;;;18.10;9.65;;;;;;;0.15;100.00;100301.83;1706955;84;21444;-77
2021/12/15 07:44:03;;;;;;;11.85;6.83;;;;;;;0.18;100.00;100298.67;1686356;84;20953;-73
2021/12/15 07:46:38;;;;;;;14.58;7.47;;;;;;;0.18;100.00;100302.20;1706845;84;20968;-72
2021/12/15 07:49:05;;;;;;;14.58;5.47;;;;;;;0.19;100.00;100307.90;1711395;82;22154;-73
2021/12/15 07:51:34;;;;;;;7.55;4.97;;;;;;;0.16;100.00;100314.28;1706647;84;21035;-72
2021/12/15 07:54:04;;;;;;;6.50;4.03;;;;;;;0.14;100.00;100320.44;1707049;84;20893;-73
2021/12/15 07:56:41;;;;;;;6.20;3.27;;;;;;;0.17;100.00;100317.28;1693953;83;20986;-73
2021/12/15 07:59:10;;;;;;;5.00;2.77;;;;;;;0.21;100.00;100322.52;1686653;84;20905;-74
2021/12/15 08:01:43;;;;;;;5.45;2.50;;;;;;;0.17;100.00;100318.63;1706840;83;22021;-73
2021/12/15 08:04:09;;;;;;;6.03;2.83;;;;;;;0.11;100.00;100319.54;1728310;82;20881;-73
2021/12/15 08:06:49;;;;;;;5.15;2.65;;;;;;;0.04;100.00;100328.25;1736086;82;20867;-72
2021/12/15 08:09:20;;;;;;;7.28;3.45;;;;;;;-0.03;100.00;100335.94;1735131;82;21011;-73
2021/12/15 08:11:55;;;;;;;7.92;4.00;;;;;;;-0.06;100.00;100334.22;1735808;82;21456;-77
2021/12/15 08:14:28;;;;;;;8.48;4.65;;;;;;;-0.09;100.00;100334.15;1735576;81;21173;-71
2021/12/15 08:17:02;;;;;;;8.10;5.00;;;;;;;-0.10;100.00;100336.55;1715393;82;21487;-72
2021/12/15 08:19:33;;;;;;;9.90;6.05;;;;;;;-0.13;100.00;100332.95;1706740;82;21420;-73
2021/12/15 08:22:07;;;;;;;9.55;5.37;;;;;;;-0.11;100.00;100332.20;1708155;82;20940;-73
2021/12/15 08:24:41;;;;;;;12.20;6.40;;;;;;;-0.06;100.00;100335.05;1706695;83;20936;-70
2021/12/15 08:27:10;;;;;;;11.85;6.00;;;;;;;-0.10;100.00;100340.59;1707057;84;20972;-71
2021/12/15 08:29:39;;;;;;;11.12;6.62;;;;;;;-0.13;100.00;100336.18;1706693;83;20940;-74
2021/12/15 08:32:14;;;;;;;10.80;6.20;;;;;;;-0.12;100.00;100335.13;1705797;82;20995;-76
2021/12/15 08:34:41;;;;;;;8.88;5.28;;;;;;;-0.07;100.00;100333.92;1734918;82;20897;-76
2021/12/15 08:37:13;;;;;;;20.57;5.17;;;;;;;-0.02;100.00;100334.06;1734555;82;21484;-85
2021/12/15 08:39:41;;;;;;;11.93;5.90;;;;;;;-0.04;100.00;100338.87;1651612;86;20866;-72
2021/12/15 08:42:10;;;;;;;9.95;5.78;;;;;;;-0.08;100.00;100335.80;1731712;82;21554;-72
2021/12/15 08:44:46;;;;;;;12.07;5.70;;;;;;;-0.06;100.00;100339.63;1707028;83;20932;-71
2021/12/15 08:47:17;;;;;;;14.30;7.20;;;;;;;-0.05;100.00;100331.82;1706950;84;20869;-71
2021/12/15 08:49:47;;;;;;;11.95;6.30;;;;;;;-0.13;100.00;100332.95;1708423;82;21003;-76
2021/12/15 08:52:14;;;;;;;9.40;4.85;;;;;;;-0.23;100.00;100329.96;1722254;82;21148;-71
2021/12/15 08:54:45;;;;;;;9.03;4.40;;;;;;;-0.33;100.00;100333.71;1736365;82;20885;-72
2021/12/15 08:57:17;;;;;;;6.95;3.98;;;;;;;-0.41;100.00;100328.61;1737088;82;20928;-71
2021/12/15 08:59:49;;;;;;;8.60;4.65;;;;;;;-0.41;100.00;100327.27;1736909;82;20995;-76
2021/12/15 09:02:19;;;;;;;5.65;4.05;;;;;;;-0.39;100.00;100329.22;1715578;82;20983;-73
2021/12/15 09:04:47;;;;;;;4.30;2.85;;;;;;;-0.40;100.00;100328.91;1736478;81;21755;-74
2021/12/15 09:07:23;;;;;;;4.97;3.00;;;;;;;-0.42;100.00;100323.75;1732654;82;20996;-73
2021/12/15 09:09:54;;;;;;;5.17;3.27;;;;;;;-0.44;100.00;100328.54;1736057;82;21435;-77
2021/12/15 09:12:22;;;;;;;13.98;5.90;;;;;;;-0.44;100.00;100311.00;1735713;82;20913;-75
2021/12/15 09:14:58;;;;;;;15.83;6.80;;;;;;;-0.44;100.00;100314.23;1736300;82;21463;-73
2021/12/15 09:17:27;;;;;;;6.35;3.47;;;;;;;-0.41;100.00;100315.13;1736323;82;21549;-76
2021/12/15 09:20:01;;;;;;;4.17;2.80;;;;;;;-0.40;100.00;100315.42;1736324;81;21500;-73
2021/12/15 09:22:31;;;;;;;4.60;2.80;;;;;;;-0.41;100.00;100320.00;1736391;82;21452;-74
2021/12/15 09:25:00;;;;;;;4.10;2.77;;;;;;;-0.46;100.00;100320.38;1715314;82;21433;-73
2021/12/15 09:27:33;;;;;;;3.77;2.40;;;;;;;-0.52;100.00;100323.44;1715638;82;22686;-71
2021/12/15 09:30:09;;;;;;;4.58;2.47;;;;;;;-0.57;100.00;100319.24;1741142;81;21175;-73
2021/12/15 09:32:41;;;;;;;2.62;2.20;;;;;;;-0.55;100.00;100321.72;1715078;82;20944;-78
2021/12/15 09:35:11;;;;;;;4.25;2.47;;;;;;;-0.60;100.00;100319.72;1715725;82;20888;-74
2021/12/15 09:37:39;;;;;;;5.55;2.58;;;;;;;-0.62;100.00;100318.30;1744179;81;20975;-78
2021/12/15 09:40:10;;;;;;;6.05;3.42;;;;;;;-0.62;100.00;100311.55;1744202;81;21420;-80
2021/12/15 09:42:42;;;;;;;9.40;3.83;;;;;;;-0.62;100.00;100320.99;1744538;82;21149;-83
2021/12/15 09:48:16;;;;;;;5.05;2.85;;;;;;;-0.65;100.00;100320.09;1744356;82;20876;-74
2021/12/15 09:56:38;;;;;;;5.40;3.00;;;;;;;-0.79;100.00;100314.00;1744671;82;21565;-73
2021/12/15 10:18:32;;;;;;;7.53;3.67;;;;;;;-1.01;100.00;100302.81;1678312;84;20998;-81
2021/12/15 10:20:57;;;;;;;5.78;2.55;;;;;;;-1.04;100.00;100303.25;1676993;85;20963;-81
2021/12/15 10:23:31;;;;;;;5.40;2.87;;;;;;;-1.12;100.00;100307.05;1709262;82;21136;-79
2021/12/15 10:26:01;;;;;;;5.87;2.65;;;;;;;-1.13;100.00;100305.92;1744160;82;21558;-75
2021/12/15 10:28:33;;;;;;;;;;;;;;;-1.12;100.00;100305.70;1747157;82;20932;-73
2021/12/15 10:31:08;;;;;;;6.28;3.35;;;;;;;-1.12;100.00;100302.19;1736598;81;20430;-72
2021/12/15 10:33:46;;;;;;;4.47;2.77;;;;;;;-1.15;100.00;100302.63;1736443;82;20932;-78
2021/12/15 10:36:25;;;;;;;7.35;4.15;;;;;;;-1.22;100.00;100291.94;1708633;82;21015;-80
2021/12/15 10:38:55;;;;;;;9.45;4.65;;;;;;;-1.28;100.00;100299.55;1736429;82;20880;-80
2021/12/15 10:41:37;;;;;;;10.20;4.58;;;;;;;-1.32;100.00;100296.99;1715364;82;20952;-77
2021/12/15 10:44:08;;;;;;;;;;;;;;;-1.27;100.00;100294.98;1713046;82;21041;-79
2021/12/15 10:46:51;;;;;;;6.42;3.70;;;;;;;-1.23;100.00;100290.81;1719801;82;20073;-78
2021/12/15 10:49:29;;;;;;;7.00;3.72;;;;;;;-1.26;100.00;100287.20;1686768;84;20862;-81
2021/12/15 10:52:03;;;;;;;8.10;4.17;;;;;;;-1.35;100.00;100296.91;1707007;84;20944;-80
2021/12/15 10:54:56;;;;;;;8.03;4.58;;;;;;;-1.37;100.00;100296.30;1706747;84;20924;-82
2021/12/15 10:57:34;;;;;;;;;;;;;;;-1.37;100.00;100302.21;1689221;84;20932;-79
2021/12/15 11:00:01;;;;;;;14.25;5.65;;;;;;;-1.43;100.00;100293.14;1706819;83;20121;-78
2021/12/15 11:02:33;;;;;;;6.97;4.85;;;;;;;-1.44;100.00;100296.88;1707036;84;20993;-79
2021/12/15 11:05:14;;;;;;;8.20;5.42;;;;;;;-1.40;100.00;100294.05;1706638;84;21004;-80
2021/12/15 11:07:45;;;;;;;;;;;;;;;-1.35;100.00;100295.56;1709495;84;20884;-80
2021/12/15 11:10:20;;;;;;;;;;;;;;;-1.31;100.00;100286.52;1709587;84;20086;-78
2021/12/15 11:12:53;;;;;;;;;;;;;;;-1.28;100.00;100284.73;1708502;84;20125;-82
2021/12/15 11:15:40;;;;;;;;;;;;;;;-1.31;100.00;100285.70;1709497;82;21059;-79
2021/12/15 11:18:06;;;;;;;;;;;;;;;-1.35;100.00;100285.31;1708840;84;20164;-72
2021/12/15 11:20:39;;;;;;;;;;;;;;;-1.34;100.00;100286.44;1708223;83;20101;-76
2021/12/15 11:23:09;;;;;;;;;;;;;;;-1.31;100.00;100285.70;1708906;83;20448;-81
2021/12/15 11:25:48;;;;;;;;;;;;;;;-1.27;100.00;100276.13;1709486;83;20429;-74
2021/12/15 11:28:33;;;;;;;;;;;;;;;-1.22;100.00;100271.73;1689306;84;20566;-75
2021/12/15 11:31:05;;;;;;;;;;;;;;;-1.20;100.00;100268.30;1719446;83;20097;-78
2021/12/15 11:33:41;;;;;;;;;;;;;;;-1.16;100.00;100266.80;1722515;83;20085;-76
2021/12/15 11:36:25;;;;;;;;;;;;;;;-1.14;100.00;100266.03;1723065;83;20090;-74
2021/12/15 11:39:06;;;;;;;;;;;;;;;-1.12;100.00;100269.33;1696377;83;20089;-73
2021/12/15 11:41:37;;;;;;;;;;;;;;;-1.11;100.00;100270.15;1695914;83;20101;-73
2021/12/15 11:44:14;;;;;;;;;;;;;;;-1.13;100.00;100269.55;1696684;83;20442;-81
2021/12/15 11:46:47;;;;;;;;;;;;;;;-1.14;100.00;100271.94;1722814;83;20129;-73
2021/12/15 11:49:25;;;;;;;;;;;;;;;-1.12;100.00;100269.85;1723374;83;20133;-82
2021/12/15 11:52:00;;;;;;;;;;;;;;;-1.08;100.00;100269.19;1721556;82;20137;-80
2021/12/15 11:54:30;;;;;;;;;;;;;;;-1.06;100.00;100270.31;1722205;83;21299;-77
2021/12/15 11:57:31;;;;;;;;;;;;;;;-1.06;100.00;100273.00;1722371;83;20122;-75
2021/12/15 12:00:12;;;;;;;;;;;;;;;-1.03;100.00;100273.39;1722993;83;20429;-77
2021/12/15 12:02:54;;;;;;;;;;;;;;;-1.03;100.00;100274.73;1723000;83;20096;-80
2021/12/15 12:05:24;;;;;;;;;;;;;;;-1.02;100.00;100275.56;1723040;83;20101;-77
2021/12/15 12:08:06;;;;;;;;;;;;;;;-1.02;100.00;100271.52;1696585;83;20101;-77
2021/12/15 12:10:47;;;;;;;;;;;;;;;-1.01;100.00;100263.20;1722368;83;20097;-73
2021/12/15 12:13:26;;;;;;;;;;;;;;;-0.99;100.00;100264.33;1722784;82;20431;-75
2021/12/15 12:16:03;;;;;;;;;;;;;;;-0.97;100.00;100268.16;1695051;83;20134;-79
2021/12/15 12:18:34;;;;;;;;;;;;;;;-0.97;100.00;100268.98;1722764;83;20134;-79
2021/12/15 12:21:11;;;;;;;;;;;;;;;-1.00;100.00;100273.47;1713869;82;21815;-82
2021/12/15 12:23:40;;;;;;;;;;;;;;;-1.05;100.00;100279.52;1733533;82;20095;-76
2021/12/15 12:26:12;;;;;;;;;;;;;;;-1.10;100.00;100279.36;1732769;82;20433;-75
2021/12/15 12:28:40;;;;;;;;;;;;;;;-1.08;100.00;100271.05;1715185;82;20469;-75
2021/12/15 12:31:12;;;;;;;;;;;;;;;-0.98;100.00;100277.28;1727317;81;20094;-76
2021/12/15 12:33:39;;;;;;;;;;;;;;;-0.96;100.00;100282.75;1760173;81;21158;-72
2021/12/15 12:36:09;;;;;;;;;;;;;;;-0.94;100.00;100278.49;1760201;81;20113;-77
2021/12/15 12:38:39;;;;;;;;;;;;;;;-0.91;100.00;100278.88;1757158;81;20098;-76
2021/12/15 12:41:14;;;;;;;;;;;;;;;-0.92;100.00;100282.61;1760520;81;20425;-72
2021/12/15 12:43:47;;;;;;;;;;;;;;;-0.95;100.00;100276.84;1760620;81;20118;-70
2021/12/15 12:46:26;;;;;;;;;;;;;;;-0.95;100.00;100283.06;1760671;81;21163;-71
2021/12/15 12:59:48;;;;;;;;;;;;;;;-1.09;100.00;100284.23;1760780;81;21120;-69
2021/12/15 13:02:39;;;;;;;;;;;;;;;-1.08;100.00;100289.39;1759875;81;20122;-74
2021/12/15 13:04:58;;;;;;;;;;;;;;;-1.09;100.00;100299.88;1743296;81;20091;-71
2021/12/15 13:07:50;;;;;;;;;;;;;;;-1.11;100.00;100299.27;1760557;81;20388;-74
2021/12/15 13:10:18;;;;;;;;;;;;;;;-1.10;100.00;100292.84;1760616;81;20129;-77